sensor_id;sensor_type;location;lat;lon;timestamp;temperature;humidity
11399;DHT22;5755;48.116;11.608;2023-01-13T00:00:13;7.90;77.60
11399;DHT22;5755;48.116;11.608;2023-01-13T00:02:40;8.00;76.80
11399;DHT22;5755;48.116;11.608;2023-01-13T00:05:08;7.90;76.60
11399;DHT22;5755;48.116;11.608;2023-01-13T00:07:35;7.90;76.50
11399;DHT22;5755;48.116;11.608;2023-01-13T00:10:03;8.10;75.80
11399;DHT22;5755;48.116;11.608;2023-01-13T00:12:31;8.10;75.50
11399;DHT22;5755;48.116;11.608;2023-01-13T00:14:58;8.10;73.80
11399;DHT22;5755;48.116;11.608;2023-01-13T00:17:25;8.20;73.20
11399;DHT22;5755;48.116;11.608;2023-01-13T00:19:52;8.10;73.00
11399;DHT22;5755;48.116;11.608;2023-01-13T00:22:19;8.20;73.10
11399;DHT22;5755;48.116;11.608;2023-01-13T00:24:46;8.20;73.10
11399;DHT22;5755;48.116;11.608;2023-01-13T00:27:12;8.10;73.80
11399;DHT22;5755;48.116;11.608;2023-01-13T00:29:41;8.10;75.80
11399;DHT22;5755;48.116;11.608;2023-01-13T00:32:08;8.00;76.70
11399;DHT22;5755;48.116;11.608;2023-01-13T00:34:35;8.10;75.40
11399;DHT22;5755;48.116;11.608;2023-01-13T00:37:01;8.10;76.50
11399;DHT22;5755;48.116;11.608;2023-01-13T00:39:28;8.10;76.30
11399;DHT22;5755;48.116;11.608;2023-01-13T00:41:55;8.00;76.20
11399;DHT22;5755;48.116;11.608;2023-01-13T00:44:41;8.00;76.50
11399;DHT22;5755;48.116;11.608;2023-01-13T00:47:08;8.00;76.60
11399;DHT22;5755;48.116;11.608;2023-01-13T00:49:35;8.00;77.50
11399;DHT22;5755;48.116;11.608;2023-01-13T00:52:02;8.00;76.50
11399;DHT22;5755;48.116;11.608;2023-01-13T00:54:28;8.00;76.60
11399;DHT22;5755;48.116;11.608;2023-01-13T00:56:56;8.10;75.70
11399;DHT22;5755;48.116;11.608;2023-01-13T00:59:22;8.10;75.90
11399;DHT22;5755;48.116;11.608;2023-01-13T01:01:51;8.10;75.70
11399;DHT22;5755;48.116;11.608;2023-01-13T01:04:18;8.20;73.00
11399;DHT22;5755;48.116;11.608;2023-01-13T01:06:45;8.20;73.00
11399;DHT22;5755;48.116;11.608;2023-01-13T01:09:13;8.30;73.20
11399;DHT22;5755;48.116;11.608;2023-01-13T01:11:40;8.30;73.20
11399;DHT22;5755;48.116;11.608;2023-01-13T01:14:09;8.30;73.20
11399;DHT22;5755;48.116;11.608;2023-01-13T01:16:37;8.30;73.20
11399;DHT22;5755;48.116;11.608;2023-01-13T01:19:07;8.30;73.20
11399;DHT22;5755;48.116;11.608;2023-01-13T01:21:34;8.40;71.80
11399;DHT22;5755;48.116;11.608;2023-01-13T01:24:02;8.50;73.50
11399;DHT22;5755;48.116;11.608;2023-01-13T01:26:30;8.50;70.30
11399;DHT22;5755;48.116;11.608;2023-01-13T01:28:57;8.50;68.10
11399;DHT22;5755;48.116;11.608;2023-01-13T01:31:28;8.50;68.40
11399;DHT22;5755;48.116;11.608;2023-01-13T01:33:57;8.60;67.00
11399;DHT22;5755;48.116;11.608;2023-01-13T01:36:26;8.60;66.30
11399;DHT22;5755;48.116;11.608;2023-01-13T01:38:55;8.60;65.80
11399;DHT22;5755;48.116;11.608;2023-01-13T01:41:23;8.60;65.80
11399;DHT22;5755;48.116;11.608;2023-01-13T01:43:52;8.60;64.60
11399;DHT22;5755;48.116;11.608;2023-01-13T01:46:25;8.60;63.80
11399;DHT22;5755;48.116;11.608;2023-01-13T01:48:52;8.50;64.40
11399;DHT22;5755;48.116;11.608;2023-01-13T01:51:20;8.50;64.90
11399;DHT22;5755;48.116;11.608;2023-01-13T01:53:49;8.50;63.60
11399;DHT22;5755;48.116;11.608;2023-01-13T01:56:18;8.50;63.60
11399;DHT22;5755;48.116;11.608;2023-01-13T01:58:47;8.50;64.20
11399;DHT22;5755;48.116;11.608;2023-01-13T02:01:16;8.40;64.60
11399;DHT22;5755;48.116;11.608;2023-01-13T02:03:51;8.40;64.30
11399;DHT22;5755;48.116;11.608;2023-01-13T02:06:20;8.40;65.20
11399;DHT22;5755;48.116;11.608;2023-01-13T02:08:49;8.30;65.30
11399;DHT22;5755;48.116;11.608;2023-01-13T02:11:27;8.40;63.50
11399;DHT22;5755;48.116;11.608;2023-01-13T02:14:07;8.40;63.30
11399;DHT22;5755;48.116;11.608;2023-01-13T02:16:38;8.50;63.00
11399;DHT22;5755;48.116;11.608;2023-01-13T02:19:23;8.50;61.70
11399;DHT22;5755;48.116;11.608;2023-01-13T02:22:07;8.40;62.30
11399;DHT22;5755;48.116;11.608;2023-01-13T02:24:58;8.40;63.00
11399;DHT22;5755;48.116;11.608;2023-01-13T02:27:46;8.40;59.30
11399;DHT22;5755;48.116;11.608;2023-01-13T02:30:38;8.40;60.30
11399;DHT22;5755;48.116;11.608;2023-01-13T02:33:40;8.50;60.40
11399;DHT22;5755;48.116;11.608;2023-01-13T02:36:14;8.50;58.90
11399;DHT22;5755;48.116;11.608;2023-01-13T02:38:49;8.50;58.40
11399;DHT22;5755;48.116;11.608;2023-01-13T02:41:24;8.50;58.30
11399;DHT22;5755;48.116;11.608;2023-01-13T02:44:10;8.50;58.30
11399;DHT22;5755;48.116;11.608;2023-01-13T02:46:49;8.40;58.90
11399;DHT22;5755;48.116;11.608;2023-01-13T02:49:23;8.50;58.10
11399;DHT22;5755;48.116;11.608;2023-01-13T02:51:54;8.40;59.10
11399;DHT22;5755;48.116;11.608;2023-01-13T02:54:26;8.40;58.80
11399;DHT22;5755;48.116;11.608;2023-01-13T02:56:54;8.40;59.10
11399;DHT22;5755;48.116;11.608;2023-01-13T02:59:22;8.40;58.80
11399;DHT22;5755;48.116;11.608;2023-01-13T03:01:55;8.40;59.60
11399;DHT22;5755;48.116;11.608;2023-01-13T03:04:43;8.40;59.80
11399;DHT22;5755;48.116;11.608;2023-01-13T03:07:12;8.50;59.70
11399;DHT22;5755;48.116;11.608;2023-01-13T03:09:47;8.40;58.90
11399;DHT22;5755;48.116;11.608;2023-01-13T03:12:20;8.30;58.70
11399;DHT22;5755;48.116;11.608;2023-01-13T03:14:54;8.20;60.00
11399;DHT22;5755;48.116;11.608;2023-01-13T03:17:31;8.20;62.50
11399;DHT22;5755;48.116;11.608;2023-01-13T03:20:04;8.10;63.90
11399;DHT22;5755;48.116;11.608;2023-01-13T03:22:34;8.10;63.00
11399;DHT22;5755;48.116;11.608;2023-01-13T03:25:08;8.00;63.80
11399;DHT22;5755;48.116;11.608;2023-01-13T03:27:41;8.00;63.50
11399;DHT22;5755;48.116;11.608;2023-01-13T03:30:15;8.00;64.30
11399;DHT22;5755;48.116;11.608;2023-01-13T03:32:46;8.00;63.40
11399;DHT22;5755;48.116;11.608;2023-01-13T03:35:17;7.90;63.60
11399;DHT22;5755;48.116;11.608;2023-01-13T03:37:50;7.90;68.40
11399;DHT22;5755;48.116;11.608;2023-01-13T03:40:22;7.80;67.40
11399;DHT22;5755;48.116;11.608;2023-01-13T03:42:54;7.70;66.30
11399;DHT22;5755;48.116;11.608;2023-01-13T03:45:41;7.70;66.10
11399;DHT22;5755;48.116;11.608;2023-01-13T03:48:14;7.80;65.90
11399;DHT22;5755;48.116;11.608;2023-01-13T03:50:46;7.80;68.00
11399;DHT22;5755;48.116;11.608;2023-01-13T03:53:18;7.70;72.60
11399;DHT22;5755;48.116;11.608;2023-01-13T03:55:49;7.70;72.60
11399;DHT22;5755;48.116;11.608;2023-01-13T03:58:19;7.70;70.80
11399;DHT22;5755;48.116;11.608;2023-01-13T04:00:52;7.70;70.30
11399;DHT22;5755;48.116;11.608;2023-01-13T04:03:26;7.70;72.60
11399;DHT22;5755;48.116;11.608;2023-01-13T04:05:58;7.70;72.60
11399;DHT22;5755;48.116;11.608;2023-01-13T04:08:29;7.70;72.60
11399;DHT22;5755;48.116;11.608;2023-01-13T04:10:59;7.70;72.60
11399;DHT22;5755;48.116;11.608;2023-01-13T04:13:31;7.70;74.00
11399;DHT22;5755;48.116;11.608;2023-01-13T04:15:59;7.70;72.60
11399;DHT22;5755;48.116;11.608;2023-01-13T04:18:29;7.70;72.60
11399;DHT22;5755;48.116;11.608;2023-01-13T04:20:57;7.70;72.60
11399;DHT22;5755;48.116;11.608;2023-01-13T04:23:25;7.70;74.00
11399;DHT22;5755;48.116;11.608;2023-01-13T04:25:54;7.90;67.20
11399;DHT22;5755;48.116;11.608;2023-01-13T04:28:21;8.00;64.70
11399;DHT22;5755;48.116;11.608;2023-01-13T04:30:48;8.20;58.60
11399;DHT22;5755;48.116;11.608;2023-01-13T04:33:17;8.40;56.90
11399;DHT22;5755;48.116;11.608;2023-01-13T04:35:47;8.60;53.90
11399;DHT22;5755;48.116;11.608;2023-01-13T04:38:17;8.60;52.80
11399;DHT22;5755;48.116;11.608;2023-01-13T04:40:44;8.70;49.10
11399;DHT22;5755;48.116;11.608;2023-01-13T04:43:11;8.80;49.00
11399;DHT22;5755;48.116;11.608;2023-01-13T04:45:40;8.90;47.00
11399;DHT22;5755;48.116;11.608;2023-01-13T04:48:07;9.10;44.00
11399;DHT22;5755;48.116;11.608;2023-01-13T04:50:34;9.20;42.30
11399;DHT22;5755;48.116;11.608;2023-01-13T04:53:02;9.20;43.80
11399;DHT22;5755;48.116;11.608;2023-01-13T04:55:30;9.20;42.60
11399;DHT22;5755;48.116;11.608;2023-01-13T04:58:01;9.20;43.60
11399;DHT22;5755;48.116;11.608;2023-01-13T05:00:28;9.30;41.30
11399;DHT22;5755;48.116;11.608;2023-01-13T05:02:56;9.40;40.00
11399;DHT22;5755;48.116;11.608;2023-01-13T05:05:24;9.40;40.90
11399;DHT22;5755;48.116;11.608;2023-01-13T05:07:50;9.50;41.10
11399;DHT22;5755;48.116;11.608;2023-01-13T05:10:19;9.40;41.60
11399;DHT22;5755;48.116;11.608;2023-01-13T05:12:46;9.50;39.80
11399;DHT22;5755;48.116;11.608;2023-01-13T05:15:30;9.50;41.30
11399;DHT22;5755;48.116;11.608;2023-01-13T05:18:15;9.50;41.10
11399;DHT22;5755;48.116;11.608;2023-01-13T05:20:43;9.60;41.40
11399;DHT22;5755;48.116;11.608;2023-01-13T05:23:10;9.60;41.50
11399;DHT22;5755;48.116;11.608;2023-01-13T05:25:56;9.60;40.40
11399;DHT22;5755;48.116;11.608;2023-01-13T05:28:22;9.70;40.70
11399;DHT22;5755;48.116;11.608;2023-01-13T05:30:49;9.70;40.50
11399;DHT22;5755;48.116;11.608;2023-01-13T05:33:18;9.80;40.20
11399;DHT22;5755;48.116;11.608;2023-01-13T05:35:46;9.80;40.70
11399;DHT22;5755;48.116;11.608;2023-01-13T05:38:14;9.90;39.30
11399;DHT22;5755;48.116;11.608;2023-01-13T05:40:42;9.90;39.40
11399;DHT22;5755;48.116;11.608;2023-01-13T05:43:28;10.00;37.10
11399;DHT22;5755;48.116;11.608;2023-01-13T05:45:56;9.90;39.30
11399;DHT22;5755;48.116;11.608;2023-01-13T05:48:26;9.90;39.00
11399;DHT22;5755;48.116;11.608;2023-01-13T05:50:52;9.90;38.90
11399;DHT22;5755;48.116;11.608;2023-01-13T05:53:20;9.90;38.30
11399;DHT22;5755;48.116;11.608;2023-01-13T05:55:47;9.90;38.70
11399;DHT22;5755;48.116;11.608;2023-01-13T05:58:16;9.80;38.30
11399;DHT22;5755;48.116;11.608;2023-01-13T06:00:45;9.90;38.60
11399;DHT22;5755;48.116;11.608;2023-01-13T06:03:12;9.90;38.00
11399;DHT22;5755;48.116;11.608;2023-01-13T06:05:40;9.90;38.60
11399;DHT22;5755;48.116;11.608;2023-01-13T06:08:08;9.90;38.80
11399;DHT22;5755;48.116;11.608;2023-01-13T06:10:35;9.90;39.30
11399;DHT22;5755;48.116;11.608;2023-01-13T06:13:03;9.90;38.80
11399;DHT22;5755;48.116;11.608;2023-01-13T06:15:30;9.90;40.00
11399;DHT22;5755;48.116;11.608;2023-01-13T06:18:01;9.90;39.50
11399;DHT22;5755;48.116;11.608;2023-01-13T06:20:28;9.90;39.40
11399;DHT22;5755;48.116;11.608;2023-01-13T06:22:55;9.90;40.20
11399;DHT22;5755;48.116;11.608;2023-01-13T06:25:28;9.90;40.00
11399;DHT22;5755;48.116;11.608;2023-01-13T06:27:58;9.90;39.70
11399;DHT22;5755;48.116;11.608;2023-01-13T06:30:26;9.90;40.50
11399;DHT22;5755;48.116;11.608;2023-01-13T06:32:58;9.90;40.70
11399;DHT22;5755;48.116;11.608;2023-01-13T06:35:30;9.90;42.00
11399;DHT22;5755;48.116;11.608;2023-01-13T06:38:00;9.80;41.90
11399;DHT22;5755;48.116;11.608;2023-01-13T06:40:27;9.90;41.30
11399;DHT22;5755;48.116;11.608;2023-01-13T06:42:54;9.90;41.10
11399;DHT22;5755;48.116;11.608;2023-01-13T06:45:41;9.90;41.30
11399;DHT22;5755;48.116;11.608;2023-01-13T06:48:09;9.90;41.60
11399;DHT22;5755;48.116;11.608;2023-01-13T06:50:36;9.90;40.80
11399;DHT22;5755;48.116;11.608;2023-01-13T06:53:03;10.00;39.10
11399;DHT22;5755;48.116;11.608;2023-01-13T06:55:29;10.10;38.70
11399;DHT22;5755;48.116;11.608;2023-01-13T06:57:57;10.00;38.80
11399;DHT22;5755;48.116;11.608;2023-01-13T07:00:24;10.00;39.80
11399;DHT22;5755;48.116;11.608;2023-01-13T07:02:52;9.90;40.90
11399;DHT22;5755;48.116;11.608;2023-01-13T07:05:20;10.00;39.30
11399;DHT22;5755;48.116;11.608;2023-01-13T07:07:47;9.90;41.10
11399;DHT22;5755;48.116;11.608;2023-01-13T07:10:14;9.90;40.80
11399;DHT22;5755;48.116;11.608;2023-01-13T07:12:47;9.90;39.80
11399;DHT22;5755;48.116;11.608;2023-01-13T07:15:32;9.90;40.90
11399;DHT22;5755;48.116;11.608;2023-01-13T07:18:00;9.90;41.60
11399;DHT22;5755;48.116;11.608;2023-01-13T07:20:29;9.80;40.80
11399;DHT22;5755;48.116;11.608;2023-01-13T07:22:56;9.80;42.00
11399;DHT22;5755;48.116;11.608;2023-01-13T07:25:24;9.80;41.40
11399;DHT22;5755;48.116;11.608;2023-01-13T07:27:50;9.80;41.10
11399;DHT22;5755;48.116;11.608;2023-01-13T07:30:17;9.80;40.80
11399;DHT22;5755;48.116;11.608;2023-01-13T07:32:44;9.90;40.90
11399;DHT22;5755;48.116;11.608;2023-01-13T07:35:11;9.90;40.60
11399;DHT22;5755;48.116;11.608;2023-01-13T07:37:39;9.90;41.80
11399;DHT22;5755;48.116;11.608;2023-01-13T07:40:08;9.80;42.30
11399;DHT22;5755;48.116;11.608;2023-01-13T07:42:37;9.80;41.90
11399;DHT22;5755;48.116;11.608;2023-01-13T07:45:22;9.80;41.90
11399;DHT22;5755;48.116;11.608;2023-01-13T07:47:50;9.70;42.70
11399;DHT22;5755;48.116;11.608;2023-01-13T07:50:18;9.70;41.90
11399;DHT22;5755;48.116;11.608;2023-01-13T07:52:46;9.80;40.80
11399;DHT22;5755;48.116;11.608;2023-01-13T07:55:13;9.80;40.70
11399;DHT22;5755;48.116;11.608;2023-01-13T07:57:40;9.90;41.50
11399;DHT22;5755;48.116;11.608;2023-01-13T08:00:08;9.90;40.40
11399;DHT22;5755;48.116;11.608;2023-01-13T08:02:35;9.90;39.70
11399;DHT22;5755;48.116;11.608;2023-01-13T08:05:02;10.00;36.50
11399;DHT22;5755;48.116;11.608;2023-01-13T08:07:29;10.10;35.70
11399;DHT22;5755;48.116;11.608;2023-01-13T08:09:58;10.10;36.20
11399;DHT22;5755;48.116;11.608;2023-01-13T08:12:24;10.00;36.20
11399;DHT22;5755;48.116;11.608;2023-01-13T08:15:09;10.10;37.10
11399;DHT22;5755;48.116;11.608;2023-01-13T08:17:36;10.10;36.80
11399;DHT22;5755;48.116;11.608;2023-01-13T08:20:03;10.10;36.40
11399;DHT22;5755;48.116;11.608;2023-01-13T08:22:30;10.10;37.10
11399;DHT22;5755;48.116;11.608;2023-01-13T08:24:59;10.10;37.70
11399;DHT22;5755;48.116;11.608;2023-01-13T08:27:26;10.10;36.60
11399;DHT22;5755;48.116;11.608;2023-01-13T08:29:53;10.10;36.70
11399;DHT22;5755;48.116;11.608;2023-01-13T08:32:19;10.10;37.40
11399;DHT22;5755;48.116;11.608;2023-01-13T08:34:46;10.20;37.00
11399;DHT22;5755;48.116;11.608;2023-01-13T08:37:13;10.20;37.00
11399;DHT22;5755;48.116;11.608;2023-01-13T08:39:40;10.20;37.00
11399;DHT22;5755;48.116;11.608;2023-01-13T08:42:08;10.30;37.00
11399;DHT22;5755;48.116;11.608;2023-01-13T08:44:35;10.30;35.40
11399;DHT22;5755;48.116;11.608;2023-01-13T08:47:02;10.30;35.00
11399;DHT22;5755;48.116;11.608;2023-01-13T08:49:30;10.40;35.30
11399;DHT22;5755;48.116;11.608;2023-01-13T08:51:56;10.40;34.80
11399;DHT22;5755;48.116;11.608;2023-01-13T08:54:23;10.40;36.60
11399;DHT22;5755;48.116;11.608;2023-01-13T08:56:50;10.40;36.00
11399;DHT22;5755;48.116;11.608;2023-01-13T08:59:19;10.40;37.50
11399;DHT22;5755;48.116;11.608;2023-01-13T09:01:46;10.40;36.50
11399;DHT22;5755;48.116;11.608;2023-01-13T09:04:15;10.40;35.60
11399;DHT22;5755;48.116;11.608;2023-01-13T09:06:43;10.50;35.40
11399;DHT22;5755;48.116;11.608;2023-01-13T09:09:10;10.60;34.70
11399;DHT22;5755;48.116;11.608;2023-01-13T09:11:40;10.60;33.90
11399;DHT22;5755;48.116;11.608;2023-01-13T09:14:40;10.80;33.30
11399;DHT22;5755;48.116;11.608;2023-01-13T09:17:07;10.90;32.10
11399;DHT22;5755;48.116;11.608;2023-01-13T09:19:34;11.00;32.50
11399;DHT22;5755;48.116;11.608;2023-01-13T09:22:02;11.00;34.00
11399;DHT22;5755;48.116;11.608;2023-01-13T09:24:29;11.10;32.10
11399;DHT22;5755;48.116;11.608;2023-01-13T09:26:57;11.10;32.10
11399;DHT22;5755;48.116;11.608;2023-01-13T09:29:26;11.10;31.80
11399;DHT22;5755;48.116;11.608;2023-01-13T09:31:58;11.20;31.70
11399;DHT22;5755;48.116;11.608;2023-01-13T09:34:40;11.20;30.70
11399;DHT22;5755;48.116;11.608;2023-01-13T09:37:22;11.20;30.20
11399;DHT22;5755;48.116;11.608;2023-01-13T09:39:49;11.20;29.90
11399;DHT22;5755;48.116;11.608;2023-01-13T09:42:26;11.30;30.10
11399;DHT22;5755;48.116;11.608;2023-01-13T09:45:14;11.40;29.70
11399;DHT22;5755;48.116;11.608;2023-01-13T09:51:02;11.70;28.70
11399;DHT22;5755;48.116;11.608;2023-01-13T09:53:38;11.80;27.90
11399;DHT22;5755;48.116;11.608;2023-01-13T09:56:13;11.90;27.00
11399;DHT22;5755;48.116;11.608;2023-01-13T09:58:41;12.20;26.50
11399;DHT22;5755;48.116;11.608;2023-01-13T10:01:17;12.50;25.70
11399;DHT22;5755;48.116;11.608;2023-01-13T10:03:47;12.50;25.80
11399;DHT22;5755;48.116;11.608;2023-01-13T10:06:16;12.60;25.80
11399;DHT22;5755;48.116;11.608;2023-01-13T10:08:46;12.40;25.70
11399;DHT22;5755;48.116;11.608;2023-01-13T10:11:16;12.50;25.80
11399;DHT22;5755;48.116;11.608;2023-01-13T10:14:10;12.50;25.70
11399;DHT22;5755;48.116;11.608;2023-01-13T10:16:42;12.50;25.70
11399;DHT22;5755;48.116;11.608;2023-01-13T10:19:17;12.60;25.80
11399;DHT22;5755;48.116;11.608;2023-01-13T10:29:46;12.80;26.00
11399;DHT22;5755;48.116;11.608;2023-01-13T10:32:27;13.00;26.20
11399;DHT22;5755;48.116;11.608;2023-01-13T10:34:56;13.10;26.30
11399;DHT22;5755;48.116;11.608;2023-01-13T10:37:25;13.10;26.20
11399;DHT22;5755;48.116;11.608;2023-01-13T10:39:55;13.10;26.20
11399;DHT22;5755;48.116;11.608;2023-01-13T10:42:23;12.90;26.10
11399;DHT22;5755;48.116;11.608;2023-01-13T10:44:51;13.10;26.20
11399;DHT22;5755;48.116;11.608;2023-01-13T10:47:24;13.40;26.50
11399;DHT22;5755;48.116;11.608;2023-01-13T10:50:03;13.40;25.40
11399;DHT22;5755;48.116;11.608;2023-01-13T10:52:33;13.50;26.60
11399;DHT22;5755;48.116;11.608;2023-01-13T10:55:12;13.70;23.90
11399;DHT22;5755;48.116;11.608;2023-01-13T10:57:49;13.80;24.40
11399;DHT22;5755;48.116;11.608;2023-01-13T11:07:45;13.40;26.50
11399;DHT22;5755;48.116;11.608;2023-01-13T11:10:21;13.00;26.10
11399;DHT22;5755;48.116;11.608;2023-01-13T11:12:58;12.80;26.00
11399;DHT22;5755;48.116;11.608;2023-01-13T11:36:32;12.30;35.20
11399;DHT22;5755;48.116;11.608;2023-01-13T11:39:20;12.30;35.10
11399;DHT22;5755;48.116;11.608;2023-01-13T11:42:04;12.20;34.50
11399;DHT22;5755;48.116;11.608;2023-01-13T12:12:42;12.30;39.20
11399;DHT22;5755;48.116;11.608;2023-01-13T12:18:48;12.10;38.30
11399;DHT22;5755;48.116;11.608;2023-01-13T12:21:19;12.00;38.10
11399;DHT22;5755;48.116;11.608;2023-01-13T12:29:12;11.90;38.60
11399;DHT22;5755;48.116;11.608;2023-01-13T12:31:48;11.70;37.50
11399;DHT22;5755;48.116;11.608;2023-01-13T12:34:25;11.50;38.40
11399;DHT22;5755;48.116;11.608;2023-01-13T12:37:14;11.50;39.40
11399;DHT22;5755;48.116;11.608;2023-01-13T12:39:51;11.30;40.00
11399;DHT22;5755;48.116;11.608;2023-01-13T12:42:23;11.30;41.30
11399;DHT22;5755;48.116;11.608;2023-01-13T12:45:22;11.40;42.00
11399;DHT22;5755;48.116;11.608;2023-01-13T12:47:49;11.40;42.20
11399;DHT22;5755;48.116;11.608;2023-01-13T12:50:35;11.30;45.00
11399;DHT22;5755;48.116;11.608;2023-01-13T12:53:30;11.10;51.00
11399;DHT22;5755;48.116;11.608;2023-01-13T12:56:39;11.10;54.10
11399;DHT22;5755;48.116;11.608;2023-01-13T12:59:44;10.90;66.20
11399;DHT22;5755;48.116;11.608;2023-01-13T13:15:25;10.40;73.50
11399;DHT22;5755;48.116;11.608;2023-01-13T13:18:20;10.50;68.40
11399;DHT22;5755;48.116;11.608;2023-01-13T13:24:17;10.70;62.90
11399;DHT22;5755;48.116;11.608;2023-01-13T13:26:44;10.80;59.40
11399;DHT22;5755;48.116;11.608;2023-01-13T13:39:04;10.90;54.40
11399;DHT22;5755;48.116;11.608;2023-01-13T13:42:10;10.80;53.80
11399;DHT22;5755;48.116;11.608;2023-01-13T13:44:56;10.80;54.60
11399;DHT22;5755;48.116;11.608;2023-01-13T13:47:41;10.80;54.60
11399;DHT22;5755;48.116;11.608;2023-01-13T13:57:02;10.80;52.00
11399;DHT22;5755;48.116;11.608;2023-01-13T13:59:29;10.80;51.30
11399;DHT22;5755;48.116;11.608;2023-01-13T14:01:58;10.70;47.50
11399;DHT22;5755;48.116;11.608;2023-01-13T14:04:40;10.60;47.40
11399;DHT22;5755;48.116;11.608;2023-01-13T14:07:15;10.50;47.30
11399;DHT22;5755;48.116;11.608;2023-01-13T14:09:45;10.50;47.30
11399;DHT22;5755;48.116;11.608;2023-01-13T14:12:19;10.50;47.30
11399;DHT22;5755;48.116;11.608;2023-01-13T14:15:02;10.50;47.60
11399;DHT22;5755;48.116;11.608;2023-01-13T14:17:30;10.40;47.20
11399;DHT22;5755;48.116;11.608;2023-01-13T14:20:00;10.30;51.10
11399;DHT22;5755;48.116;11.608;2023-01-13T14:22:29;9.30;77.90
11399;DHT22;5755;48.116;11.608;2023-01-13T14:24:56;8.10;90.60
11399;DHT22;5755;48.116;11.608;2023-01-13T14:27:26;7.50;92.90
11399;DHT22;5755;48.116;11.608;2023-01-13T14:29:53;7.00;94.30
11399;DHT22;5755;48.116;11.608;2023-01-13T14:32:23;6.70;95.90
11399;DHT22;5755;48.116;11.608;2023-01-13T14:34:51;6.60;96.70
11399;DHT22;5755;48.116;11.608;2023-01-13T14:37:22;6.40;97.30
11399;DHT22;5755;48.116;11.608;2023-01-13T14:39:49;6.40;97.30
11399;DHT22;5755;48.116;11.608;2023-01-13T14:42:16;6.30;98.00
11399;DHT22;5755;48.116;11.608;2023-01-13T14:44:46;6.20;97.90
11399;DHT22;5755;48.116;11.608;2023-01-13T14:47:20;6.20;97.90
11399;DHT22;5755;48.116;11.608;2023-01-13T14:49:55;6.20;97.90
11399;DHT22;5755;48.116;11.608;2023-01-13T14:52:25;6.40;97.70
11399;DHT22;5755;48.116;11.608;2023-01-13T14:55:10;6.30;97.20
11399;DHT22;5755;48.116;11.608;2023-01-13T14:57:39;6.30;96.50
11399;DHT22;5755;48.116;11.608;2023-01-13T15:00:21;6.40;96.50
11399;DHT22;5755;48.116;11.608;2023-01-13T15:02:58;6.50;96.20
11399;DHT22;5755;48.116;11.608;2023-01-13T15:05:37;6.60;96.10
11399;DHT22;5755;48.116;11.608;2023-01-13T15:08:26;6.60;95.60
11399;DHT22;5755;48.116;11.608;2023-01-13T15:10:55;6.50;95.70
11399;DHT22;5755;48.116;11.608;2023-01-13T15:13:29;6.50;95.70
11399;DHT22;5755;48.116;11.608;2023-01-13T15:16:03;6.60;95.40
11399;DHT22;5755;48.116;11.608;2023-01-13T15:18:31;6.60;95.40
11399;DHT22;5755;48.116;11.608;2023-01-13T15:20:58;6.70;95.40
11399;DHT22;5755;48.116;11.608;2023-01-13T15:23:25;6.70;95.40
11399;DHT22;5755;48.116;11.608;2023-01-13T15:25:53;6.60;95.80
11399;DHT22;5755;48.116;11.608;2023-01-13T15:28:21;6.70;96.50
11399;DHT22;5755;48.116;11.608;2023-01-13T15:30:49;6.60;96.80
11399;DHT22;5755;48.116;11.608;2023-01-13T15:33:18;6.50;97.30
11399;DHT22;5755;48.116;11.608;2023-01-13T15:35:47;6.40;97.40
11399;DHT22;5755;48.116;11.608;2023-01-13T15:38:16;6.40;97.00
11399;DHT22;5755;48.116;11.608;2023-01-13T15:40:44;6.40;97.30
11399;DHT22;5755;48.116;11.608;2023-01-13T15:43:13;6.30;97.70
11399;DHT22;5755;48.116;11.608;2023-01-13T15:45:58;6.30;98.00
11399;DHT22;5755;48.116;11.608;2023-01-13T15:48:44;6.30;98.00
11399;DHT22;5755;48.116;11.608;2023-01-13T15:51:12;6.30;97.80
11399;DHT22;5755;48.116;11.608;2023-01-13T15:53:39;6.20;97.70
11399;DHT22;5755;48.116;11.608;2023-01-13T15:56:13;6.10;97.90
11399;DHT22;5755;48.116;11.608;2023-01-13T15:58:40;6.00;98.40
11399;DHT22;5755;48.116;11.608;2023-01-13T16:01:08;6.00;98.30
11399;DHT22;5755;48.116;11.608;2023-01-13T16:03:36;6.00;98.30
11399;DHT22;5755;48.116;11.608;2023-01-13T16:06:12;6.00;98.10
11399;DHT22;5755;48.116;11.608;2023-01-13T16:08:41;5.90;98.70
11399;DHT22;5755;48.116;11.608;2023-01-13T16:11:08;5.80;98.90
11399;DHT22;5755;48.116;11.608;2023-01-13T16:13:36;5.80;99.10
11399;DHT22;5755;48.116;11.608;2023-01-13T16:16:04;5.80;99.50
11399;DHT22;5755;48.116;11.608;2023-01-13T16:18:38;5.80;99.50
11399;DHT22;5755;48.116;11.608;2023-01-13T16:21:08;5.80;99.50
11399;DHT22;5755;48.116;11.608;2023-01-13T16:23:35;5.90;99.20
11399;DHT22;5755;48.116;11.608;2023-01-13T16:26:04;6.00;99.10
11399;DHT22;5755;48.116;11.608;2023-01-13T16:28:31;6.00;99.00
11399;DHT22;5755;48.116;11.608;2023-01-13T16:31:18;6.10;99.00
11399;DHT22;5755;48.116;11.608;2023-01-13T16:33:47;6.10;98.60
11399;DHT22;5755;48.116;11.608;2023-01-13T16:36:16;6.30;98.00
11399;DHT22;5755;48.116;11.608;2023-01-13T16:38:44;6.40;97.90
11399;DHT22;5755;48.116;11.608;2023-01-13T16:41:11;6.30;98.00
11399;DHT22;5755;48.116;11.608;2023-01-13T16:43:38;6.30;98.40
11399;DHT22;5755;48.116;11.608;2023-01-13T16:46:20;6.20;98.60
11399;DHT22;5755;48.116;11.608;2023-01-13T16:48:48;6.20;98.40
11399;DHT22;5755;48.116;11.608;2023-01-13T16:51:18;6.30;98.30
11399;DHT22;5755;48.116;11.608;2023-01-13T16:53:59;6.40;98.00
11399;DHT22;5755;48.116;11.608;2023-01-13T16:56:29;6.40;98.00
11399;DHT22;5755;48.116;11.608;2023-01-13T16:58:57;6.60;97.50
11399;DHT22;5755;48.116;11.608;2023-01-13T17:01:26;6.70;97.00
11399;DHT22;5755;48.116;11.608;2023-01-13T17:03:54;6.70;97.30
11399;DHT22;5755;48.116;11.608;2023-01-13T17:06:24;6.60;97.40
11399;DHT22;5755;48.116;11.608;2023-01-13T17:08:52;6.50;97.80
11399;DHT22;5755;48.116;11.608;2023-01-13T17:11:22;6.40;98.20
11399;DHT22;5755;48.116;11.608;2023-01-13T17:13:49;6.40;98.50
11399;DHT22;5755;48.116;11.608;2023-01-13T17:16:19;6.50;98.10
11399;DHT22;5755;48.116;11.608;2023-01-13T17:18:47;6.40;97.80
11399;DHT22;5755;48.116;11.608;2023-01-13T17:21:14;6.30;98.30
11399;DHT22;5755;48.116;11.608;2023-01-13T17:23:42;6.20;98.60
11399;DHT22;5755;48.116;11.608;2023-01-13T17:26:32;6.10;99.00
11399;DHT22;5755;48.116;11.608;2023-01-13T17:29:02;6.10;99.20
11399;DHT22;5755;48.116;11.608;2023-01-13T17:31:29;6.20;98.90
11399;DHT22;5755;48.116;11.608;2023-01-13T17:34:11;6.30;98.80
11399;DHT22;5755;48.116;11.608;2023-01-13T17:36:38;6.20;98.90
11399;DHT22;5755;48.116;11.608;2023-01-13T17:42:05;6.10;99.20
11399;DHT22;5755;48.116;11.608;2023-01-13T17:44:31;6.10;99.60
11399;DHT22;5755;48.116;11.608;2023-01-13T17:46:58;6.20;99.20
11399;DHT22;5755;48.116;11.608;2023-01-13T17:49:25;6.20;99.30
11399;DHT22;5755;48.116;11.608;2023-01-13T17:51:52;6.20;99.00
11399;DHT22;5755;48.116;11.608;2023-01-13T17:54:34;6.20;98.50
11399;DHT22;5755;48.116;11.608;2023-01-13T17:57:15;6.40;98.00
11399;DHT22;5755;48.116;11.608;2023-01-13T17:59:42;6.40;97.80
11399;DHT22;5755;48.116;11.608;2023-01-13T18:02:10;6.40;97.70